Time;durP1;ratioP1;P1;durP2;ratioP2;P2;SDS_P1;SDS_P2;PMS_P1;PMS_P2;Temp;Humidity;BMP_temperature;BMP_pressure;BME280_temperature;BME280_humidity;BME280_pressure;Samples;Min_cycle;Max_cycle;Signal;HPM_P1;HPM_P2
2021/06/07 00:02:14;;;;;;;5.22;3.55;;;;;;;;;;4407979;32;20153;-75
2021/06/07 00:04:40;;;;;;;6.37;3.92;;;;;;;;;;4408063;32;20177;-74
2021/06/07 00:07:06;;;;;;;4.93;3.55;;;;;;;;;;4422295;32;20170;-75
2021/06/07 00:09:32;;;;;;;5.30;4.00;;;;;;;;;;4421146;32;20194;-75
2021/06/07 00:11:58;;;;;;;5.00;3.90;;;;;;;;;;4422286;32;20540;-77
2021/06/07 00:14:26;;;;;;;5.65;3.70;;;;;;;;;;4421376;32;20138;-75
2021/06/07 00:16:51;;;;;;;8.00;3.97;;;;;;;;;;4408596;32;20162;-76
2021/06/07 00:19:18;;;;;;;4.55;3.53;;;;;;;;;;4423112;32;20130;-75
2021/06/07 00:21:43;;;;;;;6.22;4.45;;;;;;;;;;4423067;32;20608;-75
2021/06/07 00:24:09;;;;;;;9.10;4.45;;;;;;;;;;4437913;32;20125;-75
2021/06/07 00:26:35;;;;;;;6.20;4.05;;;;;;;;;;4423119;32;20213;-76
2021/06/07 00:29:01;;;;;;;4.10;3.67;;;;;;;;;;4436863;32;20130;-76
2021/06/07 00:31:26;;;;;;;6.70;3.83;;;;;;;;;;4436282;32;20167;-76
2021/06/07 00:33:52;;;;;;;4.90;3.75;;;;;;;;;;4436974;32;20530;-75
2021/06/07 00:36:21;;;;;;;4.05;3.55;;;;;;;;;;4437971;32;20179;-77
2021/06/07 00:38:47;;;;;;;4.65;3.60;;;;;;;;;;4424792;32;20172;-77
2021/06/07 00:41:12;;;;;;;5.22;3.80;;;;;;;;;;4422665;32;20551;-76
2021/06/07 00:43:37;;;;;;;5.50;3.72;;;;;;;;;;4421152;32;20598;-76
2021/06/07 00:46:03;;;;;;;6.85;3.92;;;;;;;;;;4421097;32;20605;-76
2021/06/07 00:48:28;;;;;;;7.07;3.95;;;;;;;;;;4421923;32;20278;-76
2021/06/07 00:50:55;;;;;;;5.12;3.87;;;;;;;;;;4421725;32;20175;-76
2021/06/07 00:53:21;;;;;;;5.07;3.78;;;;;;;;;;4423007;32;20249;-76
2021/06/07 00:55:54;;;;;;;6.37;4.15;;;;;;;;;;4406998;32;20204;-76
2021/06/07 00:58:22;;;;;;;4.68;4.12;;;;;;;;;;4422423;32;20168;-76
2021/06/07 01:00:47;;;;;;;4.10;3.65;;;;;;;;;;4421765;32;20215;-75
2021/06/07 01:03:13;;;;;;;6.03;3.85;;;;;;;;;;4407019;32;20169;-76
2021/06/07 01:05:39;;;;;;;5.93;4.28;;;;;;;;;;4408741;32;20166;-75
2021/06/07 01:08:05;;;;;;;5.47;4.10;;;;;;;;;;4422741;32;20177;-76
2021/06/07 01:10:30;;;;;;;6.95;4.40;;;;;;;;;;4421810;32;20566;-75
2021/06/07 01:12:55;;;;;;;7.68;4.72;;;;;;;;;;4406717;32;20558;-74
2021/06/07 01:15:21;;;;;;;7.00;4.20;;;;;;;;;;4422536;32;20149;-76
2021/06/07 01:17:46;;;;;;;5.18;4.12;;;;;;;;;;4421700;32;20357;-76
2021/06/07 01:20:14;;;;;;;6.15;4.20;;;;;;;;;;4420834;32;20126;-76
2021/06/07 01:22:40;;;;;;;5.97;4.00;;;;;;;;;;4420532;32;20477;-75
2021/06/07 01:25:08;;;;;;;7.82;4.12;;;;;;;;;;4421117;32;20192;-75
2021/06/07 01:27:33;;;;;;;5.97;3.90;;;;;;;;;;4420737;32;20458;-76
2021/06/07 01:29:59;;;;;;;7.57;4.28;;;;;;;;;;4421233;32;20195;-77
2021/06/07 01:32:24;;;;;;;4.72;3.67;;;;;;;;;;4422410;32;20929;-75
2021/06/07 01:34:49;;;;;;;7.30;3.60;;;;;;;;;;4406350;32;20188;-76
2021/06/07 01:37:14;;;;;;;5.65;4.10;;;;;;;;;;4420720;32;20453;-75
2021/06/07 01:39:40;;;;;;;4.80;4.25;;;;;;;;;;4420925;32;20197;-75
2021/06/07 01:42:05;;;;;;;5.75;4.18;;;;;;;;;;4420030;32;20598;-75
2021/06/07 01:44:30;;;;;;;5.30;4.10;;;;;;;;;;4420907;32;20159;-75
2021/06/07 01:46:55;;;;;;;5.70;3.92;;;;;;;;;;4421822;32;20528;-75
2021/06/07 01:49:21;;;;;;;6.10;4.22;;;;;;;;;;4420053;32;20187;-75
2021/06/07 01:51:46;;;;;;;6.32;4.47;;;;;;;;;;4420098;32;20233;-76
2021/06/07 01:54:11;;;;;;;7.20;5.25;;;;;;;;;;4407213;32;20157;-76
2021/06/07 01:56:36;;;;;;;8.88;5.00;;;;;;;;;;4407098;32;20221;-76
2021/06/07 01:59:02;;;;;;;6.22;5.32;;;;;;;;;;4420571;32;20129;-76
2021/06/07 02:01:28;;;;;;;6.28;5.15;;;;;;;;;;4420462;32;20146;-76
2021/06/07 02:03:53;;;;;;;6.57;4.68;;;;;;;;;;4406082;32;20177;-76
2021/06/07 02:06:19;;;;;;;6.65;5.32;;;;;;;;;;4406336;32;20166;-75
2021/06/07 02:08:44;;;;;;;8.23;5.28;;;;;;;;;;4420642;32;20217;-74
2021/06/07 02:11:15;;;;;;;8.17;5.23;;;;;;;;;;4407609;32;20582;-76
2021/06/07 02:13:41;;;;;;;8.50;5.55;;;;;;;;;;4420320;32;20234;-76
2021/06/07 02:16:08;;;;;;;6.57;5.18;;;;;;;;;;4421315;32;20170;-76
2021/06/07 02:18:35;;;;;;;8.93;5.80;;;;;;;;;;4407160;32;20209;-76
2021/06/07 02:21:00;;;;;;;8.57;6.10;;;;;;;;;;4420317;32;20184;-75
2021/06/07 02:23:25;;;;;;;7.18;5.72;;;;;;;;;;4406097;32;20638;-75
2021/06/07 02:25:51;;;;;;;8.25;5.53;;;;;;;;;;4420283;32;20161;-75
2021/06/07 02:28:17;;;;;;;8.65;5.18;;;;;;;;;;4419640;32;20141;-75
2021/06/07 02:30:42;;;;;;;8.07;5.78;;;;;;;;;;4419761;32;20134;-76
2021/06/07 02:33:08;;;;;;;6.85;6.00;;;;;;;;;;4406244;32;20239;-76
2021/06/07 02:35:33;;;;;;;8.90;6.32;;;;;;;;;;4406151;32;20162;-75
2021/06/07 02:37:58;;;;;;;8.18;5.95;;;;;;;;;;4420520;32;20142;-76
2021/06/07 02:40:26;;;;;;;8.75;6.43;;;;;;;;;;4421097;32;20160;-75
2021/06/07 02:42:51;;;;;;;8.65;6.53;;;;;;;;;;4419731;32;20165;-76
2021/06/07 02:45:17;;;;;;;7.78;6.20;;;;;;;;;;4419890;32;20158;-76
2021/06/07 02:47:44;;;;;;;8.63;6.25;;;;;;;;;;4420156;32;20537;-76
2021/06/07 02:50:11;;;;;;;7.00;5.78;;;;;;;;;;4419875;32;20169;-75
2021/06/07 02:52:47;;;;;;;8.00;6.12;;;;;;;;;;4422446;32;20238;-75
2021/06/07 02:55:12;;;;;;;8.93;6.15;;;;;;;;;;4424269;32;20130;-75
2021/06/07 02:57:37;;;;;;;8.75;5.85;;;;;;;;;;4409343;32;20203;-76
2021/06/07 03:00:03;;;;;;;9.68;5.97;;;;;;;;;;4423062;32;20146;-76
2021/06/07 03:02:28;;;;;;;8.02;5.80;;;;;;;;;;4424126;32;20242;-76
2021/06/07 03:04:53;;;;;;;8.00;5.23;;;;;;;;;;4408617;32;20192;-76
2021/06/07 03:07:18;;;;;;;7.93;5.45;;;;;;;;;;4424632;32;20271;-75
2021/06/07 03:09:44;;;;;;;7.15;5.53;;;;;;;;;;4423057;32;20347;-75
2021/06/07 03:12:09;;;;;;;8.20;5.97;;;;;;;;;;4422217;32;20255;-75
2021/06/07 03:14:35;;;;;;;8.18;5.70;;;;;;;;;;4422805;32;20252;-75
2021/06/07 03:17:01;;;;;;;8.38;6.15;;;;;;;;;;4408401;32;20545;-75
2021/06/07 03:19:26;;;;;;;9.75;6.62;;;;;;;;;;4422570;32;20130;-75
2021/06/07 03:21:51;;;;;;;10.27;6.60;;;;;;;;;;4422166;32;20126;-75
2021/06/07 03:24:16;;;;;;;11.00;6.55;;;;;;;;;;4423427;32;20157;-76
2021/06/07 03:26:41;;;;;;;9.10;6.57;;;;;;;;;;4422328;32;20130;-75
2021/06/07 03:29:07;;;;;;;9.20;6.83;;;;;;;;;;4409311;32;20180;-76
2021/06/07 03:31:32;;;;;;;7.57;6.05;;;;;;;;;;4409899;32;20312;-76
2021/06/07 03:33:57;;;;;;;7.97;6.45;;;;;;;;;;4408319;32;20193;-76
2021/06/07 03:36:22;;;;;;;7.75;6.18;;;;;;;;;;4408479;32;20628;-76
2021/06/07 03:38:48;;;;;;;9.32;6.20;;;;;;;;;;4422092;32;20306;-75
2021/06/07 03:41:13;;;;;;;8.57;7.20;;;;;;;;;;4422142;32;20157;-76
2021/06/07 03:43:38;;;;;;;9.73;7.40;;;;;;;;;;4421907;32;20230;-76
2021/06/07 03:46:05;;;;;;;7.72;6.18;;;;;;;;;;4409243;32;20165;-76
2021/06/07 03:48:30;;;;;;;11.82;6.90;;;;;;;;;;4408173;32;20196;-76
2021/06/07 03:50:55;;;;;;;9.63;6.78;;;;;;;;;;4423364;32;20582;-76
2021/06/07 03:53:21;;;;;;;9.35;6.68;;;;;;;;;;4421712;32;20157;-76
2021/06/07 03:55:46;;;;;;;13.07;7.75;;;;;;;;;;4409682;32;20204;-75
2021/06/07 03:58:11;;;;;;;11.20;6.93;;;;;;;;;;4409277;32;20572;-76
2021/06/07 04:00:38;;;;;;;9.10;6.22;;;;;;;;;;4422109;32;20176;-75
2021/06/07 04:03:05;;;;;;;9.25;6.90;;;;;;;;;;4423044;32;20130;-74
2021/06/07 04:05:30;;;;;;;11.10;6.82;;;;;;;;;;4425117;32;20125;-76
2021/06/07 04:07:56;;;;;;;10.45;6.57;;;;;;;;;;4411137;32;20232;-75
2021/06/07 04:10:22;;;;;;;10.20;7.20;;;;;;;;;;4423263;32;20575;-76
2021/06/07 04:12:48;;;;;;;10.65;6.70;;;;;;;;;;4421749;32;20130;-75
2021/06/07 04:15:14;;;;;;;9.32;7.03;;;;;;;;;;4421521;32;20168;-76
2021/06/07 04:17:39;;;;;;;10.35;6.60;;;;;;;;;;4408075;32;20170;-76
2021/06/07 04:20:08;;;;;;;11.83;7.17;;;;;;;;;;4407396;32;20227;-74
2021/06/07 04:22:34;;;;;;;10.15;6.62;;;;;;;;;;4422948;32;20603;-75
2021/06/07 04:24:59;;;;;;;8.65;6.37;;;;;;;;;;4421560;32;20134;-75
2021/06/07 04:27:24;;;;;;;12.27;6.68;;;;;;;;;;4421193;32;20130;-75
2021/06/07 04:29:50;;;;;;;11.95;6.53;;;;;;;;;;4422533;32;20158;-76
2021/06/07 04:32:15;;;;;;;9.38;7.10;;;;;;;;;;4407840;32;20197;-75
2021/06/07 04:34:40;;;;;;;8.63;6.37;;;;;;;;;;4422652;32;20134;-76
2021/06/07 04:37:06;;;;;;;7.30;6.15;;;;;;;;;;4421415;32;20598;-76
2021/06/07 04:39:31;;;;;;;12.43;6.65;;;;;;;;;;4421481;32;20184;-75
2021/06/07 04:41:56;;;;;;;11.20;6.35;;;;;;;;;;4420938;32;20169;-75
2021/06/07 04:44:22;;;;;;;9.25;6.18;;;;;;;;;;4407110;32;20173;-76
2021/06/07 04:46:47;;;;;;;8.10;6.47;;;;;;;;;;4408148;32;20162;-75
2021/06/07 04:49:12;;;;;;;10.50;6.32;;;;;;;;;;4421773;32;20134;-75
2021/06/07 04:51:38;;;;;;;6.93;5.90;;;;;;;;;;4408372;32;20270;-73
2021/06/07 04:54:03;;;;;;;9.07;6.30;;;;;;;;;;4422862;32;20460;-75
2021/06/07 04:56:29;;;;;;;9.35;5.35;;;;;;;;;;4421072;32;20126;-75
2021/06/07 04:58:54;;;;;;;8.95;5.28;;;;;;;;;;4407807;32;20153;-75
2021/06/07 05:01:19;;;;;;;6.70;5.28;;;;;;;;;;4432903;32;20599;-74
2021/06/07 05:03:44;;;;;;;7.35;4.80;;;;;;;;;;4436961;32;20182;-75
2021/06/07 05:06:09;;;;;;;5.97;5.15;;;;;;;;;;4422698;32;20509;-74
2021/06/07 05:08:34;;;;;;;7.80;6.13;;;;;;;;;;4421193;32;20260;-75
2021/06/07 05:11:00;;;;;;;10.80;5.72;;;;;;;;;;4437484;32;20268;-76
2021/06/07 05:13:26;;;;;;;8.38;4.97;;;;;;;;;;4421771;32;20231;-74
2021/06/07 05:15:52;;;;;;;8.27;5.20;;;;;;;;;;4419504;32;20192;-75
2021/06/07 05:18:17;;;;;;;7.35;5.15;;;;;;;;;;4421729;32;20158;-73
2021/06/07 05:20:42;;;;;;;6.53;4.82;;;;;;;;;;4433781;32;20161;-75
2021/06/07 05:23:08;;;;;;;10.18;5.85;;;;;;;;;;4426477;32;20688;-74
2021/06/07 05:25:34;;;;;;;7.60;4.90;;;;;;;;;;4404853;32;20169;-75
2021/06/07 05:28:01;;;;;;;7.60;4.37;;;;;;;;;;4419504;32;20195;-74
2021/06/07 05:30:27;;;;;;;8.38;4.80;;;;;;;;;;4420349;32;20200;-74
2021/06/07 05:32:52;;;;;;;8.00;4.20;;;;;;;;;;4418940;32;20133;-74
2021/06/07 05:35:17;;;;;;;8.98;4.18;;;;;;;;;;4419589;32;20134;-74
2021/06/07 05:37:43;;;;;;;7.55;3.60;;;;;;;;;;4420644;32;20134;-74
2021/06/07 05:40:12;;;;;;;4.78;3.20;;;;;;;;;;4405246;32;20188;-74
2021/06/07 05:42:38;;;;;;;8.38;4.30;;;;;;;;;;4420557;32;20175;-74
2021/06/07 05:45:04;;;;;;;5.12;3.45;;;;;;;;;;4420009;32;20547;-75
2021/06/07 05:47:29;;;;;;;5.45;3.22;;;;;;;;;;4419377;32;20146;-74
2021/06/07 05:49:55;;;;;;;4.78;2.83;;;;;;;;;;4421209;32;20165;-75
2021/06/07 05:52:20;;;;;;;5.27;3.40;;;;;;;;;;4422612;32;20610;-74
2021/06/07 05:54:45;;;;;;;5.60;3.42;;;;;;;;;;4436971;32;20275;-75
2021/06/07 05:57:10;;;;;;;5.57;3.40;;;;;;;;;;4437933;32;20259;-75
2021/06/07 05:59:36;;;;;;;7.47;5.32;;;;;;;;;;4433764;32;20601;-75
2021/06/07 06:02:05;;;;;;;5.28;3.62;;;;;;;;;;4435582;32;20172;-75
2021/06/07 06:04:30;;;;;;;6.20;4.07;;;;;;;;;;4436930;32;20695;-75
2021/06/07 06:06:55;;;;;;;5.22;3.78;;;;;;;;;;4420593;32;20205;-76
2021/06/07 06:09:21;;;;;;;6.43;4.50;;;;;;;;;;4436626;32;20164;-74
2021/06/07 06:11:46;;;;;;;6.10;3.80;;;;;;;;;;4434537;32;20570;-75
2021/06/07 06:14:11;;;;;;;7.82;4.40;;;;;;;;;;4422961;32;20350;-74
2021/06/07 06:16:36;;;;;;;5.82;3.83;;;;;;;;;;4422683;32;20185;-75
2021/06/07 06:19:02;;;;;;;7.87;4.50;;;;;;;;;;4411479;32;20165;-76
2021/06/07 06:21:27;;;;;;;6.90;4.20;;;;;;;;;;4419622;32;20178;-77
2021/06/07 06:23:56;;;;;;;6.93;4.95;;;;;;;;;;4427963;32;20134;-75
2021/06/07 06:26:21;;;;;;;7.20;4.78;;;;;;;;;;4409142;32;20157;-73
2021/06/07 06:28:47;;;;;;;6.72;4.32;;;;;;;;;;4423764;32;20138;-76
2021/06/07 06:31:12;;;;;;;8.13;4.95;;;;;;;;;;4412449;32;20164;-76
2021/06/07 06:33:38;;;;;;;7.47;5.35;;;;;;;;;;4421430;32;20478;-76
2021/06/07 06:36:03;;;;;;;6.47;5.07;;;;;;;;;;4435833;32;20146;-77
2021/06/07 06:38:28;;;;;;;7.12;5.57;;;;;;;;;;4436567;32;20183;-75
2021/06/07 06:40:54;;;;;;;12.05;5.28;;;;;;;;;;4436795;32;20482;-75
2021/06/07 06:43:20;;;;;;;5.57;3.80;;;;;;;;;;4422233;32;20165;-76
2021/06/07 06:45:45;;;;;;;7.40;4.15;;;;;;;;;;4435865;32;20192;-76
2021/06/07 06:48:10;;;;;;;10.52;4.35;;;;;;;;;;4437008;32;20183;-76
2021/06/07 06:50:36;;;;;;;6.35;4.57;;;;;;;;;;4437664;32;20168;-76
2021/06/07 06:53:06;;;;;;;7.00;4.72;;;;;;;;;;4436497;32;20180;-77
2021/06/07 06:55:31;;;;;;;7.10;4.90;;;;;;;;;;4437500;32;20176;-76
2021/06/07 06:57:56;;;;;;;6.82;3.78;;;;;;;;;;4437860;32;20146;-77
2021/06/07 07:00:22;;;;;;;7.62;5.53;;;;;;;;;;4437672;32;20206;-77
2021/06/07 07:02:47;;;;;;;10.05;4.25;;;;;;;;;;4436011;32;20190;-77
2021/06/07 07:05:12;;;;;;;7.93;5.53;;;;;;;;;;4436885;32;20142;-77
2021/06/07 07:07:38;;;;;;;6.07;4.53;;;;;;;;;;4436238;32;20158;-76
2021/06/07 07:10:04;;;;;;;6.53;3.72;;;;;;;;;;4435800;32;20145;-75
2021/06/07 07:12:29;;;;;;;5.72;4.82;;;;;;;;;;4421411;32;20660;-76
2021/06/07 07:14:55;;;;;;;5.03;4.00;;;;;;;;;;4437122;32;20187;-75
2021/06/07 07:17:20;;;;;;;7.95;4.90;;;;;;;;;;4435355;32;20357;-78
2021/06/07 07:19:46;;;;;;;7.05;3.53;;;;;;;;;;4436029;32;20187;-76
2021/06/07 07:22:12;;;;;;;5.40;4.28;;;;;;;;;;4437060;32;20482;-76
2021/06/07 07:24:42;;;;;;;7.68;4.57;;;;;;;;;;4421762;32;20250;-77
2021/06/07 07:27:08;;;;;;;6.87;4.00;;;;;;;;;;4437245;32;20134;-77
2021/06/07 07:29:33;;;;;;;5.62;3.95;;;;;;;;;;4436482;32;20134;-76
2021/06/07 07:31:58;;;;;;;7.40;4.53;;;;;;;;;;4421159;32;20664;-76
2021/06/07 07:34:23;;;;;;;6.78;4.40;;;;;;;;;;4420921;32;20265;-76
2021/06/07 07:36:48;;;;;;;6.43;4.40;;;;;;;;;;4418532;32;20257;-76
2021/06/07 07:39:13;;;;;;;12.20;4.47;;;;;;;;;;4437192;32;20300;-77
2021/06/07 07:41:39;;;;;;;6.22;3.67;;;;;;;;;;4424611;32;20256;-76
2021/06/07 07:44:05;;;;;;;8.60;4.45;;;;;;;;;;4436279;32;20167;-77
2021/06/07 07:46:30;;;;;;;8.23;4.30;;;;;;;;;;4435612;32;20167;-77
2021/06/07 07:48:55;;;;;;;6.70;3.83;;;;;;;;;;4435011;32;20203;-77
2021/06/07 07:51:20;;;;;;;5.55;3.72;;;;;;;;;;4420805;32;20245;-79
2021/06/07 07:53:45;;;;;;;4.90;3.40;;;;;;;;;;4436426;32;20248;-77
2021/06/07 07:56:11;;;;;;;6.68;4.45;;;;;;;;;;4435513;32;20237;-78
2021/06/07 07:58:36;;;;;;;12.57;5.70;;;;;;;;;;4435577;32;20295;-78
2021/06/07 08:01:01;;;;;;;7.93;4.40;;;;;;;;;;4435750;32;20149;-78
2021/06/07 08:03:27;;;;;;;7.82;3.65;;;;;;;;;;4436784;32;20145;-77
2021/06/07 08:05:52;;;;;;;5.90;4.40;;;;;;;;;;4437020;32;20259;-77
2021/06/07 08:08:17;;;;;;;6.97;4.40;;;;;;;;;;4434706;32;20169;-77
2021/06/07 08:10:42;;;;;;;4.65;3.25;;;;;;;;;;4435703;32;20332;-78
2021/06/07 08:13:07;;;;;;;6.37;3.60;;;;;;;;;;4434436;32;20184;-78
2021/06/07 08:15:35;;;;;;;6.55;4.15;;;;;;;;;;4434503;32;20528;-76
2021/06/07 08:18:01;;;;;;;5.68;3.33;;;;;;;;;;4433101;32;20256;-77
2021/06/07 08:20:26;;;;;;;5.47;4.10;;;;;;;;;;4434055;32;20180;-76
2021/06/07 08:22:54;;;;;;;4.82;3.30;;;;;;;;;;4430444;32;20724;-78
2021/06/07 08:25:20;;;;;;;5.55;3.47;;;;;;;;;;4434903;32;20145;-77
2021/06/07 08:27:45;;;;;;;6.28;3.67;;;;;;;;;;4420332;32;20157;-78
2021/06/07 08:30:11;;;;;;;8.20;3.70;;;;;;;;;;4421048;32;20254;-77
2021/06/07 08:32:37;;;;;;;4.82;3.47;;;;;;;;;;4434484;32;20169;-77
2021/06/07 08:35:03;;;;;;;8.23;4.20;;;;;;;;;;4434268;32;20138;-76
2021/06/07 08:37:28;;;;;;;6.62;3.53;;;;;;;;;;4430953;32;20178;-77
2021/06/07 08:39:53;;;;;;;5.75;3.50;;;;;;;;;;4410761;32;20210;-78
2021/06/07 08:42:19;;;;;;;7.10;3.80;;;;;;;;;;4408625;32;20162;-78
2021/06/07 08:44:44;;;;;;;5.90;4.25;;;;;;;;;;4405241;32;20154;-78
2021/06/07 08:47:09;;;;;;;7.10;3.95;;;;;;;;;;4419781;32;20159;-77
2021/06/07 08:49:34;;;;;;;6.45;3.53;;;;;;;;;;4418824;32;20169;-78
2021/06/07 08:51:59;;;;;;;5.18;3.15;;;;;;;;;;4420241;32;20195;-77
2021/06/07 08:54:25;;;;;;;4.70;3.10;;;;;;;;;;4420777;32;20210;-77
2021/06/07 08:56:50;;;;;;;5.57;3.45;;;;;;;;;;4405778;32;20157;-77
2021/06/07 08:59:16;;;;;;;6.90;3.72;;;;;;;;;;4419809;32;20682;-78
2021/06/07 09:01:41;;;;;;;5.80;3.50;;;;;;;;;;4405643;32;20520;-76
2021/06/07 09:04:07;;;;;;;5.28;3.40;;;;;;;;;;4404023;32;20227;-77
2021/06/07 09:06:37;;;;;;;6.62;3.35;;;;;;;;;;4407201;32;20519;-78
2021/06/07 09:09:06;;;;;;;5.70;3.53;;;;;;;;;;4419242;32;20208;-78
2021/06/07 09:11:40;;;;;;;6.57;3.15;;;;;;;;;;4419641;32;20170;-78
2021/06/07 09:14:22;;;;;;;7.22;3.28;;;;;;;;;;4420055;32;20577;-77
2021/06/07 09:16:47;;;;;;;4.78;2.78;;;;;;;;;;4420879;32;20218;-78
2021/06/07 09:19:16;;;;;;;5.10;2.42;;;;;;;;;;4419041;32;20142;-78
2021/06/07 09:21:41;;;;;;;4.82;3.00;;;;;;;;;;4419872;32;20138;-78
2021/06/07 09:24:07;;;;;;;6.43;3.33;;;;;;;;;;4419247;32;20597;-77
2021/06/07 09:26:38;;;;;;;2.90;2.50;;;;;;;;;;4419384;32;20287;-77
2021/06/07 09:29:26;;;;;;;5.60;2.70;;;;;;;;;;4419136;32;20555;-77
2021/06/07 09:31:52;;;;;;;4.12;2.72;;;;;;;;;;4418754;32;20194;-77
2021/06/07 09:34:25;;;;;;;4.80;2.67;;;;;;;;;;4420875;32;20142;-77
2021/06/07 09:36:50;;;;;;;6.55;2.80;;;;;;;;;;4421077;32;20228;-77
2021/06/07 09:39:23;;;;;;;5.00;2.90;;;;;;;;;;4419223;32;20177;-77
2021/06/07 09:41:50;;;;;;;5.57;2.90;;;;;;;;;;4418979;32;20157;-76
2021/06/07 09:44:31;;;;;;;3.72;2.78;;;;;;;;;;4407267;32;20161;-78
2021/06/07 09:47:14;;;;;;;4.10;2.72;;;;;;;;;;4421491;32;20197;-77
2021/06/07 09:49:47;;;;;;;5.43;2.87;;;;;;;;;;4406331;32;20516;-78
2021/06/07 09:52:14;;;;;;;3.20;2.15;;;;;;;;;;4420541;32;20182;-78
2021/06/07 09:54:39;;;;;;;6.55;3.30;;;;;;;;;;4425335;32;20203;-78
2021/06/07 09:57:05;;;;;;;4.60;3.40;;;;;;;;;;4425266;32;20142;-77
2021/06/07 09:59:32;;;;;;;4.55;2.87;;;;;;;;;;4404141;32;20188;-77
2021/06/07 10:01:58;;;;;;;7.00;2.70;;;;;;;;;;4419842;32;20589;-78
2021/06/07 10:04:42;;;;;;;5.25;3.10;;;;;;;;;;4419338;32;20176;-77
2021/06/07 10:07:08;;;;;;;5.22;3.50;;;;;;;;;;4430053;32;20220;-78
2021/06/07 10:09:33;;;;;;;4.75;3.30;;;;;;;;;;4420455;32;20146;-77
2021/06/07 10:11:58;;;;;;;5.53;2.90;;;;;;;;;;4424911;32;20146;-78
2021/06/07 10:14:23;;;;;;;5.47;3.53;;;;;;;;;;4425854;32;20802;-76
2021/06/07 10:17:01;;;;;;;3.43;2.50;;;;;;;;;;4434163;32;20256;-78
2021/06/07 10:19:47;;;;;;;5.40;3.53;;;;;;;;;;4416889;32;20359;-79
2021/06/07 10:22:13;;;;;;;4.37;2.65;;;;;;;;;;4419265;32;20506;-78
2021/06/07 10:24:39;;;;;;;6.85;2.67;;;;;;;;;;4408844;32;20682;-78
2021/06/07 10:27:05;;;;;;;3.30;2.25;;;;;;;;;;4418643;32;20231;-78
2021/06/07 10:29:34;;;;;;;3.83;2.78;;;;;;;;;;4418713;32;20169;-78
2021/06/07 10:32:13;;;;;;;4.82;2.92;;;;;;;;;;4415837;32;20361;-77
2021/06/07 10:34:49;;;;;;;4.75;2.75;;;;;;;;;;4428128;32;20149;-77
2021/06/07 10:37:14;;;;;;;3.78;3.12;;;;;;;;;;4418377;32;20134;-77
2021/06/07 10:39:39;;;;;;;5.67;3.33;;;;;;;;;;4419063;32;20176;-78
2021/06/07 10:42:07;;;;;;;4.93;2.40;;;;;;;;;;4404775;32;20736;-78
2021/06/07 10:44:36;;;;;;;6.57;3.12;;;;;;;;;;4429673;32;20287;-79
2021/06/07 10:47:06;;;;;;;4.32;3.40;;;;;;;;;;4417661;32;20328;-79
2021/06/07 10:49:38;;;;;;;4.70;2.55;;;;;;;;;;4403385;32;20173;-78
2021/06/07 10:52:20;;;;;;;3.80;2.72;;;;;;;;;;4417501;32;20206;-78
2021/06/07 10:54:47;;;;;;;5.43;3.40;;;;;;;;;;4433629;32;20141;-79
2021/06/07 10:57:24;;;;;;;6.97;3.28;;;;;;;;;;4432959;32;20206;-79
2021/06/07 10:59:50;;;;;;;9.32;3.58;;;;;;;;;;4428217;32;20613;-79
2021/06/07 11:02:17;;;;;;;4.22;3.20;;;;;;;;;;4404740;32;20175;-77
2021/06/07 11:04:42;;;;;;;5.18;3.75;;;;;;;;;;4417583;32;20198;-79
2021/06/07 11:07:18;;;;;;;6.47;3.20;;;;;;;;;;4417918;32;20153;-78
2021/06/07 11:10:02;;;;;;;5.53;3.37;;;;;;;;;;4432699;32;20286;-79
2021/06/07 11:12:31;;;;;;;9.20;3.12;;;;;;;;;;4439239;32;20171;-79
2021/06/07 11:15:20;;;;;;;6.00;3.50;;;;;;;;;;4451784;32;20188;-79
2021/06/07 11:17:45;;;;;;;5.00;3.37;;;;;;;;;;4442088;32;20236;-78
2021/06/07 11:20:11;;;;;;;4.68;3.40;;;;;;;;;;4429656;32;20189;-78
2021/06/07 11:22:55;;;;;;;5.10;3.37;;;;;;;;;;4436610;32;20191;-78
2021/06/07 11:25:20;;;;;;;6.12;3.90;;;;;;;;;;4416515;32;20196;-76
2021/06/07 11:27:45;;;;;;;4.40;3.28;;;;;;;;;;4421719;32;20134;-79
2021/06/07 11:30:16;;;;;;;4.65;2.92;;;;;;;;;;4441965;32;20214;-78
2021/06/07 11:32:41;;;;;;;8.30;4.43;;;;;;;;;;4451961;32;20165;-79
2021/06/07 11:35:06;;;;;;;5.10;3.40;;;;;;;;;;4437378;32;20208;-77
2021/06/07 11:37:33;;;;;;;5.37;3.00;;;;;;;;;;4453250;32;20483;-78
2021/06/07 11:39:59;;;;;;;6.30;3.08;;;;;;;;;;4437602;32;20172;-78
2021/06/07 11:42:28;;;;;;;8.23;5.62;;;;;;;;;;4452835;32;20153;-76
2021/06/07 11:44:56;;;;;;;6.90;4.03;;;;;;;;;;4441432;32;20183;-76
2021/06/07 11:47:34;;;;;;;6.55;3.28;;;;;;;;;;4435513;32;20180;-79
2021/06/07 11:49:59;;;;;;;7.47;2.85;;;;;;;;;;4421416;32;20594;-77
2021/06/07 11:52:34;;;;;;;5.70;3.45;;;;;;;;;;4435292;32;20547;-79
2021/06/07 11:54:59;;;;;;;4.28;3.47;;;;;;;;;;4421519;32;20639;-78
2021/06/07 11:57:25;;;;;;;5.68;3.30;;;;;;;;;;4435425;32;20134;-78
2021/06/07 11:59:54;;;;;;;10.68;3.65;;;;;;;;;;4427338;32;20172;-76
2021/06/07 12:02:20;;;;;;;6.12;3.70;;;;;;;;;;4424729;32;20580;-78
2021/06/07 12:04:45;;;;;;;6.75;3.50;;;;;;;;;;4419867;32;20179;-77
2021/06/07 12:07:11;;;;;;;5.25;3.45;;;;;;;;;;4420756;32;20444;-78
2021/06/07 12:09:38;;;;;;;7.03;3.22;;;;;;;;;;4420898;32;20676;-77
2021/06/07 12:12:04;;;;;;;2.90;2.58;;;;;;;;;;4419341;32;20142;-78
2021/06/07 12:14:30;;;;;;;4.25;2.80;;;;;;;;;;4421348;32;20137;-79
2021/06/07 12:17:22;;;;;;;4.43;3.00;;;;;;;;;;4419859;32;20138;-78
2021/06/07 12:19:56;;;;;;;4.65;3.00;;;;;;;;;;4415665;32;20165;-78
2021/06/07 12:22:32;;;;;;;4.07;2.22;;;;;;;;;;4420644;32;20165;-77
2021/06/07 12:30:33;;;;;;;4.85;2.80;;;;;;;;;;4419507;32;20169;-77
2021/06/07 12:32:58;;;;;;;6.87;3.40;;;;;;;;;;4405264;32;20448;-76
2021/06/07 12:35:24;;;;;;;4.28;3.22;;;;;;;;;;4420616;32;20142;-77
2021/06/07 12:37:51;;;;;;;5.20;2.40;;;;;;;;;;4404314;32;20270;-77
2021/06/07 12:40:19;;;;;;;4.80;2.83;;;;;;;;;;4404914;32;20528;-77
2021/06/07 12:42:46;;;;;;;4.78;2.97;;;;;;;;;;4414426;32;20222;-78
2021/06/07 12:45:13;;;;;;;3.62;2.60;;;;;;;;;;4428897;32;20149;-77
2021/06/07 12:47:40;;;;;;;2.42;1.95;;;;;;;;;;4430937;32;20149;-78
2021/06/07 12:50:26;;;;;;;3.42;2.40;;;;;;;;;;4420964;32;20175;-79
2021/06/07 12:52:53;;;;;;;4.32;2.60;;;;;;;;;;4405939;32;20170;-78
2021/06/07 12:55:20;;;;;;;6.82;2.67;;;;;;;;;;4405120;32;20260;-77
2021/06/07 12:57:46;;;;;;;5.05;2.10;;;;;;;;;;4406073;32;20174;-77
2021/06/07 13:00:28;;;;;;;3.87;2.37;;;;;;;;;;4409350;32;20212;-78
2021/06/07 13:02:54;;;;;;;3.10;2.10;;;;;;;;;;4430142;32;20609;-77
2021/06/07 13:05:25;;;;;;;4.97;2.08;;;;;;;;;;4434400;32;20146;-79
2021/06/07 13:08:05;;;;;;;5.15;1.80;;;;;;;;;;4435976;32;20172;-79
2021/06/07 13:10:36;;;;;;;3.75;2.10;;;;;;;;;;4417442;32;20222;-78
2021/06/07 13:13:01;;;;;;;3.03;2.55;;;;;;;;;;4432370;32;20197;-78
2021/06/07 13:15:26;;;;;;;2.70;2.08;;;;;;;;;;4432836;32;20446;-79
2021/06/07 13:18:05;;;;;;;3.57;2.23;;;;;;;;;;4433556;32;20137;-79
2021/06/07 13:20:31;;;;;;;3.50;2.35;;;;;;;;;;4418655;32;20211;-78
2021/06/07 13:22:56;;;;;;;2.20;1.67;;;;;;;;;;4434031;32;20173;-77
2021/06/07 13:25:21;;;;;;;3.80;2.03;;;;;;;;;;4433462;32;20145;-77
2021/06/07 13:27:46;;;;;;;3.40;2.27;;;;;;;;;;4434634;32;20177;-77
2021/06/07 13:30:13;;;;;;;3.50;2.43;;;;;;;;;;4419293;32;20250;-79
2021/06/07 13:32:39;;;;;;;6.12;2.58;;;;;;;;;;4432721;32;20316;-78
2021/06/07 13:35:04;;;;;;;5.70;1.80;;;;;;;;;;4418817;32;20162;-77
2021/06/07 13:37:33;;;;;;;3.95;1.90;;;;;;;;;;4430639;32;20525;-78
2021/06/07 13:39:58;;;;;;;6.62;2.20;;;;;;;;;;4416586;32;20540;-79
2021/06/07 13:42:23;;;;;;;3.62;1.98;;;;;;;;;;4418496;32;20523;-78
2021/06/07 13:44:50;;;;;;;3.45;2.10;;;;;;;;;;4432281;32;20520;-77
2021/06/07 13:47:20;;;;;;;4.37;1.60;;;;;;;;;;4431180;32;20716;-78
2021/06/07 13:49:56;;;;;;;4.20;2.10;;;;;;;;;;4430996;32;20150;-77
2021/06/07 13:52:22;;;;;;;5.57;2.20;;;;;;;;;;4431636;32;20142;-78
2021/06/07 13:54:54;;;;;;;3.10;2.10;;;;;;;;;;4431098;32;20168;-78
2021/06/07 13:57:19;;;;;;;3.45;1.87;;;;;;;;;;4431439;32;20198;-78
2021/06/07 13:59:44;;;;;;;3.43;2.00;;;;;;;;;;4422347;32;20634;-77
2021/06/07 14:02:09;;;;;;;2.70;1.83;;;;;;;;;;4419394;32;20244;-78
2021/06/07 14:04:34;;;;;;;2.13;1.60;;;;;;;;;;4428494;32;20545;-77
2021/06/07 14:07:00;;;;;;;2.42;2.00;;;;;;;;;;4431757;32;20244;-78
2021/06/07 14:09:29;;;;;;;5.90;3.00;;;;;;;;;;4416999;32;20518;-76
2021/06/07 14:11:55;;;;;;;4.50;1.87;;;;;;;;;;4430954;32;20184;-78
2021/06/07 14:14:22;;;;;;;4.37;1.90;;;;;;;;;;4432463;32;20589;-78
2021/06/07 14:16:47;;;;;;;3.85;2.22;;;;;;;;;;4430508;32;20177;-78
2021/06/07 14:19:12;;;;;;;4.40;1.98;;;;;;;;;;4417269;32;20223;-78
2021/06/07 14:24:37;;;;;;;3.00;2.00;;;;;;;;;;4430832;32;20145;-79
2021/06/07 14:24:38;;;;;;;2.67;1.40;;;;;;;;;;4432744;32;20295;-79
2021/06/07 14:27:07;;;;;;;3.45;1.58;;;;;;;;;;4418071;32;20162;-79
2021/06/07 14:29:33;;;;;;;2.37;1.50;;;;;;;;;;4431779;32;20137;-78
2021/06/07 14:31:59;;;;;;;4.10;2.15;;;;;;;;;;4416956;32;20211;-78
2021/06/07 14:34:24;;;;;;;3.58;1.75;;;;;;;;;;4402498;32;20166;-78
2021/06/07 14:36:50;;;;;;;4.00;1.62;;;;;;;;;;4417434;32;20138;-78
2021/06/07 14:39:15;;;;;;;1.67;1.40;;;;;;;;;;4418055;32;20207;-77
2021/06/07 14:41:41;;;;;;;4.03;1.60;;;;;;;;;;4401866;32;20178;-78
2021/06/07 14:44:06;;;;;;;3.67;1.60;;;;;;;;;;4417952;32;20200;-79
2021/06/07 14:46:31;;;;;;;2.10;1.40;;;;;;;;;;4418488;32;20245;-78
2021/06/07 14:48:56;;;;;;;4.17;1.47;;;;;;;;;;4418150;32;20483;-79